createdAt,value
2022-08-03T00:00:07.495Z,97982.75
2022-08-03T00:05:13.859Z,97980.50
2022-08-03T00:10:15.316Z,97972.56
2022-08-03T00:15:17.181Z,97980.06
2022-08-03T00:20:18.622Z,97977.53
2022-08-03T00:25:19.933Z,97964.41
2022-08-03T00:30:21.353Z,97968.94
2022-08-03T00:35:35.110Z,97968.88
2022-08-03T00:40:38.656Z,97962.00
2022-08-03T00:45:41.232Z,97961.34
2022-08-03T00:50:42.938Z,97955.34
2022-08-03T00:55:44.617Z,97960.78
2022-08-03T01:00:46.242Z,97954.28
2022-08-03T01:05:58.921Z,97964.63
2022-08-03T01:11:10.134Z,97967.94
2022-08-03T01:16:28.006Z,97970.06
2022-08-03T01:21:52.480Z,97970.56
2022-08-03T01:26:59.875Z,97961.84
2022-08-03T01:33:00.249Z,97957.47
2022-08-03T01:37:42.709Z,97959.84
2022-08-03T01:42:45.441Z,97950.81
2022-08-03T01:47:48.238Z,97949.84
2022-08-03T01:52:50.306Z,97954.88
2022-08-03T01:58:05.410Z,97954.06
2022-08-03T02:03:08.591Z,97952.16
2022-08-03T02:08:12.294Z,97947.25
2022-08-03T02:13:15.119Z,97937.69
2022-08-03T02:18:18.405Z,97935.25
2022-08-03T02:23:19.773Z,97939.00
2022-08-03T02:28:22.229Z,97935.25
2022-08-03T02:33:34.423Z,97927.09
2022-08-03T02:44:06.974Z,97929.16
2022-08-03T02:49:42.153Z,97933.66
2022-08-03T02:54:32.578Z,97934.44
2022-08-03T02:59:34.444Z,97941.97
2022-08-03T03:04:35.853Z,97927.84
2022-08-03T03:09:41.844Z,97930.81
2022-08-03T03:14:44.678Z,97928.91
2022-08-03T03:19:47.088Z,97939.72
2022-08-03T03:24:51.625Z,97934.44
2022-08-03T03:29:53.069Z,97937.06
2022-08-03T03:34:54.885Z,97931.78
2022-08-03T03:39:56.239Z,97928.16
2022-08-03T03:44:58.000Z,97935.38
2022-08-03T03:50:02.054Z,97939.06
2022-08-03T03:55:03.533Z,97942.75
2022-08-03T04:00:06.065Z,97939.97
2022-08-03T04:05:26.759Z,97935.03
2022-08-03T04:10:50.216Z,97936.09
2022-08-03T04:15:51.874Z,97942.91
2022-08-03T04:20:54.338Z,97937.81
2022-08-03T04:25:56.309Z,97934.63
2022-08-03T04:30:57.889Z,97943.94
2022-08-03T04:36:03.685Z,97952.22
2022-08-03T04:41:05.541Z,97955.59
2022-08-03T04:46:07.745Z,97955.25
2022-08-03T04:51:10.835Z,97956.47
2022-08-03T04:56:12.188Z,97961.25
2022-08-03T05:01:13.677Z,97956.78
2022-08-03T05:06:16.262Z,97959.41
2022-08-03T05:11:18.035Z,97961.53
2022-08-03T05:16:19.490Z,97966.38
2022-08-03T05:21:20.835Z,97956.56
2022-08-03T05:26:22.180Z,97963.56
2022-08-03T05:31:23.595Z,97960.22
2022-08-03T05:36:25.108Z,97957.16
2022-08-03T05:41:36.597Z,97960.38
2022-08-03T05:46:39.053Z,97956.50
2022-08-03T05:51:40.495Z,97964.28
2022-08-03T05:56:41.849Z,97963.34
2022-08-03T06:01:43.296Z,97965.69
2022-08-03T06:06:44.773Z,97968.81
2022-08-03T06:11:46.125Z,97968.41
2022-08-03T06:16:47.535Z,97963.63
2022-08-03T06:21:48.882Z,97963.75
2022-08-03T06:26:52.187Z,97964.63
2022-08-03T06:31:53.569Z,97966.34
2022-08-03T06:37:01.371Z,97961.53
2022-08-03T06:42:04.067Z,97965.91
2022-08-03T06:47:05.474Z,97965.91
2022-08-03T06:52:07.103Z,97967.56
2022-08-03T06:57:09.585Z,97973.28
2022-08-03T07:02:11.489Z,97983.66
2022-08-03T07:07:13.833Z,97982.78
2022-08-03T07:12:15.313Z,97987.97
2022-08-03T07:17:16.774Z,97991.16
2022-08-03T07:22:18.231Z,97980.97
2022-08-03T07:27:19.754Z,97983.63
2022-08-03T07:32:21.176Z,97979.19
2022-08-03T07:37:22.611Z,97983.47
2022-08-03T07:42:24.150Z,97975.13
2022-08-03T07:47:34.841Z,97970.13
2022-08-03T07:52:49.655Z,97977.66
2022-08-03T07:58:01.219Z,97966.59
2022-08-03T08:03:02.776Z,97972.75
2022-08-03T08:08:04.265Z,97968.75
2022-08-03T08:13:05.684Z,97975.47
2022-08-03T08:18:07.073Z,97969.31
2022-08-03T08:23:25.479Z,97974.09
2022-08-03T08:28:33.679Z,97966.84
2022-08-03T08:34:03.302Z,97965.03
2022-08-03T08:38:57.424Z,97966.00
2022-08-03T08:44:00.171Z,97964.56
2022-08-03T08:49:05.169Z,97964.75
2022-08-03T08:54:07.474Z,97964.31
2022-08-03T08:59:08.914Z,97975.38
2022-08-03T09:04:10.463Z,97964.25
2022-08-03T09:09:11.992Z,97961.31
2022-08-03T09:14:39.166Z,97966.00
2022-08-03T09:20:03.676Z,97958.09
2022-08-03T09:25:24.061Z,97967.78
2022-08-03T09:30:34.674Z,97968.13
2022-08-03T09:35:57.806Z,97967.94
2022-08-03T09:41:00.790Z,97969.59
2022-08-03T09:46:03.907Z,97965.97
2022-08-03T09:51:13.057Z,97964.53
2022-08-03T09:56:35.762Z,97962.09
2022-08-03T10:01:37.344Z,97964.22
2022-08-03T10:06:38.802Z,97957.56
2022-08-03T10:11:42.241Z,97947.78
2022-08-03T10:16:44.957Z,97940.63
2022-08-03T10:21:49.362Z,97946.34
2022-08-03T10:26:51.548Z,97937.84
2022-08-03T10:31:58.090Z,97942.06
2022-08-03T10:37:00.041Z,97934.13
2022-08-03T10:42:02.827Z,97936.16
2022-08-03T10:47:04.822Z,97931.63
2022-08-03T10:52:13.793Z,97928.53
2022-08-03T10:57:47.443Z,97921.94
2022-08-03T11:03:03.970Z,97924.16
2022-08-03T11:08:18.336Z,97927.28
2022-08-03T11:13:20.963Z,97917.13
2022-08-03T11:18:22.770Z,97919.13
2022-08-03T11:24:05.046Z,97907.66
2022-08-03T11:29:25.796Z,97911.63
2022-08-03T11:34:27.282Z,97905.31
2022-08-03T11:39:38.981Z,97899.81
2022-08-03T11:44:40.967Z,97905.00
2022-08-03T11:49:43.088Z,97891.03
2022-08-03T11:54:44.715Z,97891.88
2022-08-03T11:59:46.129Z,97890.44
2022-08-03T12:04:58.167Z,97890.75
2022-08-03T12:10:06.576Z,97893.19
2022-08-03T12:15:08.664Z,97881.81
2022-08-03T12:20:10.309Z,97874.31
2022-08-03T12:25:20.015Z,97877.22
2022-08-03T12:30:41.594Z,97873.69
2022-08-03T12:35:52.557Z,97875.78
2022-08-03T12:41:16.564Z,97868.88
2022-08-03T12:46:19.142Z,97860.41
2022-08-03T12:51:20.590Z,97860.84
2022-08-03T12:56:22.274Z,97857.28
2022-08-03T13:01:24.452Z,97853.84
2022-08-03T13:06:27.505Z,97859.38
2022-08-03T13:11:55.967Z,97858.06
2022-08-03T13:16:50.350Z,97851.06
2022-08-03T13:21:53.772Z,97849.97
2022-08-03T13:28:01.630Z,97845.50
2022-08-03T13:32:28.835Z,97850.69
2022-08-03T13:37:32.088Z,97843.97
2022-08-03T13:42:34.392Z,97837.72
2022-08-03T13:47:36.828Z,97840.06
2022-08-03T13:52:38.291Z,97830.34
2022-08-03T13:58:05.036Z,97824.09
2022-08-03T14:03:12.802Z,97817.41
2022-08-03T14:08:14.984Z,97820.28
2022-08-03T14:13:17.451Z,97815.66
2022-08-03T14:18:28.943Z,97807.22
2022-08-03T14:23:35.392Z,97810.50
2022-08-03T14:28:36.798Z,97812.00
2022-08-03T14:33:38.527Z,97804.09
2022-08-03T14:44:04.482Z,97789.31
2022-08-03T14:50:30.494Z,97791.16
2022-08-03T14:54:30.762Z,97790.00
2022-08-03T14:59:57.100Z,97791.06
2022-08-03T15:04:53.533Z,97786.22
2022-08-03T15:09:55.034Z,97775.50
2022-08-03T15:14:56.686Z,97768.34
2022-08-03T15:20:01.596Z,97776.19
2022-08-03T15:26:31.997Z,97777.09
2022-08-03T15:30:27.133Z,97774.31
2022-08-03T15:35:28.866Z,97775.00
2022-08-03T15:40:30.412Z,97774.66
2022-08-03T15:45:36.315Z,97766.22
2022-08-03T15:50:38.534Z,97755.53
2022-08-03T15:55:40.441Z,97752.97
2022-08-03T16:00:42.533Z,97757.59
2022-08-03T16:05:43.945Z,97751.09
2022-08-03T16:10:46.637Z,97750.59
2022-08-03T16:15:49.924Z,97738.66
2022-08-03T16:20:51.356Z,97748.91
2022-08-03T16:25:53.033Z,97740.16
2022-08-03T16:30:54.352Z,97743.59
2022-08-03T16:35:55.742Z,97746.13
2022-08-03T16:40:57.166Z,97744.03
2022-08-03T16:45:58.522Z,97745.75
2022-08-03T16:50:59.882Z,97741.38
2022-08-03T16:56:01.279Z,97761.69
2022-08-03T17:01:10.853Z,97755.34
2022-08-03T17:06:24.342Z,97758.31
2022-08-03T17:11:35.370Z,97766.09
2022-08-03T17:16:38.632Z,97759.66
2022-08-03T17:21:42.549Z,97760.84
2022-08-03T17:26:53.147Z,97761.53
2022-08-03T17:31:54.919Z,97773.69
2022-08-03T17:37:05.162Z,97761.63
2022-08-03T17:42:29.309Z,97770.06
2022-08-03T17:47:29.300Z,97775.41
2022-08-03T17:52:48.158Z,97780.53
2022-08-03T17:58:05.943Z,97780.28
2022-08-03T18:03:26.208Z,97779.81
2022-08-03T18:08:38.649Z,97773.91
2022-08-03T18:13:57.624Z,97783.91
2022-08-03T18:19:00.605Z,97783.50
2022-08-03T18:24:10.917Z,97786.28
2022-08-03T18:29:13.456Z,97789.19
2022-08-03T18:34:33.404Z,97783.19
2022-08-03T18:39:49.287Z,97789.63
2022-08-03T18:44:53.549Z,97788.75
2022-08-03T18:50:03.285Z,97798.72
2022-08-03T18:55:12.525Z,97804.31
2022-08-03T19:00:24.958Z,97800.50
2022-08-03T19:05:56.220Z,97806.00
2022-08-03T19:11:06.173Z,97811.53
2022-08-03T19:16:09.535Z,97794.88
2022-08-03T19:21:15.646Z,97813.19
2022-08-03T19:26:30.347Z,97804.13
2022-08-03T19:31:35.037Z,97808.84
2022-08-03T19:42:08.224Z,97810.69
2022-08-03T19:47:17.057Z,97809.88
2022-08-03T19:52:20.581Z,97810.69
2022-08-03T19:57:27.130Z,97810.72
2022-08-03T20:02:29.762Z,97808.00
2022-08-03T20:07:32.783Z,97807.56
2022-08-03T20:12:38.745Z,97803.44
2022-08-03T20:17:55.203Z,97801.22
2022-08-03T20:22:59.489Z,97800.97
2022-08-03T20:28:13.834Z,97798.13
2022-08-03T20:33:18.869Z,97796.91
2022-08-03T20:38:27.238Z,97797.88
2022-08-03T20:43:29.019Z,97801.81
2022-08-03T20:48:32.044Z,97797.88
2022-08-03T20:58:56.235Z,97799.25
2022-08-03T21:03:58.164Z,97796.16
2022-08-03T21:09:03.871Z,97805.06
2022-08-03T21:13:07.722Z,97804.31
2022-08-03T21:13:08.789Z,97807.44
2022-08-03T21:14:12.856Z,97804.88
2022-08-03T21:19:16.230Z,97808.50
2022-08-03T21:24:17.840Z,97810.13
2022-08-03T21:29:19.891Z,97804.38
2022-08-03T21:34:21.419Z,97804.88
2022-08-03T21:39:22.786Z,97801.88
2022-08-03T21:44:28.867Z,97799.94
2022-08-03T21:50:07.503Z,97801.88
2022-08-03T21:54:54.948Z,97806.81
2022-08-03T22:00:01.530Z,97802.22
2022-08-03T22:05:04.847Z,97807.22
2022-08-03T22:10:07.333Z,97804.81
2022-08-03T22:15:10.786Z,97793.41
2022-08-03T22:20:16.190Z,97797.28
2022-08-03T22:25:17.632Z,97798.97
2022-08-03T22:30:19.386Z,97784.78
2022-08-03T22:35:21.251Z,97797.44
2022-08-03T22:40:22.577Z,97797.47
2022-08-03T22:46:06.171Z,97792.25
2022-08-03T22:50:46.293Z,97796.38
2022-08-03T22:55:48.748Z,97790.09
2022-08-03T23:00:53.124Z,97792.84
2022-08-03T23:06:01.186Z,97786.81
2022-08-03T23:11:08.377Z,97792.59
2022-08-03T23:16:09.886Z,97786.59
2022-08-03T23:21:11.877Z,97790.72
2022-08-03T23:26:17.159Z,97794.56
2022-08-03T23:31:19.570Z,97794.00
2022-08-03T23:36:30.547Z,97786.09
2022-08-03T23:41:34.672Z,97782.56
2022-08-03T23:46:37.085Z,97795.69
2022-08-03T23:51:57.208Z,97787.25
2022-08-03T23:57:08.369Z,97790.59
